Time;durP1;ratioP1;P1;durP2;ratioP2;P2;SDS_P1;SDS_P2;PMS_P1;PMS_P2;Temp;Humidity;BMP_temperature;BMP_pressure;BME280_temperature;BME280_humidity;BME280_pressure;Samples;Min_cycle;Max_cycle;Signal;HPM_P1;HPM_P2
2022/01/23 00:00:19;;;;;;;17.30;15.67;;;;;;;7.74;63.20;99439.88;8479797;27;20225;-70
2022/01/23 00:04:22;;;;;;;16.37;14.77;;;;;;;7.89;62.41;99441.44;8449059;28;20552;-70
2022/01/23 00:08:26;;;;;;;17.33;15.67;;;;;;;7.87;62.58;99438.03;8449010;28;20395;-70
2022/01/23 00:12:33;;;;;;;18.73;17.00;;;;;;;7.93;62.42;99443.97;8448964;28;20230;-70
2022/01/23 00:20:56;;;;;;;16.80;15.10;;;;;;;7.76;63.17;99428.66;8448016;28;20229;-69
2022/01/23 00:33:42;;;;;;;17.17;15.37;;;;;;;7.87;62.50;99435.47;8447618;28;20240;-70
2022/01/23 00:37:45;;;;;;;16.27;14.67;;;;;;;7.92;62.15;99433.66;8447823;28;20230;-70
2022/01/23 00:41:50;;;;;;;16.63;14.90;;;;;;;7.82;62.15;99438.06;8447365;28;20541;-70
2022/01/23 00:45:57;;;;;;;16.33;14.20;;;;;;;7.78;63.04;99444.97;8447162;28;20241;-69
2022/01/23 00:50:00;;;;;;;17.03;15.33;;;;;;;7.70;63.07;99433.88;8447163;28;20227;-70
2022/01/23 00:54:05;;;;;;;17.70;15.67;;;;;;;7.68;62.46;99440.78;8477853;28;20234;-70
2022/01/23 00:58:10;;;;;;;19.27;16.23;;;;;;;7.63;63.19;99442.53;8481000;28;20236;-70
2022/01/23 01:02:13;;;;;;;17.63;15.23;;;;;;;7.67;62.49;99446.78;8480776;28;20229;-70
2022/01/23 01:06:17;;;;;;;17.20;15.40;;;;;;;7.65;63.55;99433.06;8480865;28;20292;-70
2022/01/23 01:10:25;;;;;;;17.17;15.40;;;;;;;7.85;62.53;99434.63;8480596;28;20236;-69
2022/01/23 01:32:03;;;;;;;15.83;14.33;;;;;;;7.86;62.65;99454.38;8480688;28;20236;-69
2022/01/23 01:36:18;;;;;;;15.50;14.00;;;;;;;7.93;62.48;99456.03;8480466;28;20441;-69
2022/01/23 01:40:23;;;;;;;16.63;15.03;;;;;;;7.87;62.62;99449.19;8480283;28;20551;-69
2022/01/23 01:44:27;;;;;;;16.40;14.80;;;;;;;7.95;62.36;99442.22;8481079;28;20560;-70
2022/01/23 01:48:32;;;;;;;16.70;15.10;;;;;;;7.92;61.98;99434.53;8481804;28;20212;-70
2022/01/23 01:52:35;;;;;;;16.47;14.73;;;;;;;8.06;61.91;99438.72;8482327;28;20432;-69
2022/01/23 01:56:50;;;;;;;16.97;15.23;;;;;;;7.87;62.11;99431.16;8478658;28;20235;-69
2022/01/23 02:00:56;;;;;;;17.20;15.50;;;;;;;7.81;62.55;99434.63;8486373;28;20284;-69
2022/01/23 02:09:28;;;;;;;16.60;15.00;;;;;;;7.97;61.89;99437.91;8486225;28;20224;-70
2022/01/23 02:13:34;;;;;;;15.33;13.83;;;;;;;7.81;62.03;99439.78;8473552;27;20233;-71
2022/01/23 02:17:55;;;;;;;15.80;14.30;;;;;;;7.90;61.83;99446.59;8452254;28;20234;-70
2022/01/23 02:52:46;;;;;;;14.60;13.20;;;;;;;7.92;61.63;99443.97;8442768;28;20240;-70
2022/01/23 02:56:54;;;;;;;13.67;12.37;;;;;;;7.89;61.57;99444.03;8484624;27;20244;-70
2022/01/23 03:01:08;;;;;;;13.73;12.33;;;;;;;7.94;61.46;99445.69;8484668;28;20229;-70
2022/01/23 03:05:22;;;;;;;14.27;12.77;;;;;;;7.95;61.64;99434.50;8483458;28;20236;-70
2022/01/23 03:13:54;;;;;;;15.20;13.70;;;;;;;7.94;61.25;99437.09;8484116;28;20236;-70
2022/01/23 03:26:51;;;;;;;16.03;14.30;;;;;;;7.96;61.35;99450.84;8475862;27;20225;-70
2022/01/23 03:31:07;;;;;;;14.57;13.17;;;;;;;8.00;61.13;99458.53;8483525;28;20225;-70
2022/01/23 03:35:11;;;;;;;14.97;13.57;;;;;;;8.01;61.36;99475.72;8483520;27;20232;-70
2022/01/23 03:39:13;;;;;;;15.17;13.57;;;;;;;7.96;61.12;99462.00;8483397;28;20548;-70
2022/01/23 03:43:25;;;;;;;16.23;14.53;;;;;;;8.01;60.88;99465.41;8483109;28;20229;-70
2022/01/23 03:47:37;;;;;;;16.63;14.97;;;;;;;7.99;61.32;99451.66;8483229;28;20225;-70
2022/01/23 03:51:42;;;;;;;17.17;15.47;;;;;;;7.95;61.18;99436.22;8482307;28;20236;-70
2022/01/23 03:55:45;;;;;;;16.53;14.70;;;;;;;7.96;61.42;99431.06;8483027;27;20234;-70
2022/01/23 03:59:48;;;;;;;16.60;14.97;;;;;;;7.99;60.86;99437.91;8482944;27;20240;-70
2022/01/23 04:03:56;;;;;;;15.77;14.17;;;;;;;7.95;61.11;99449.97;8482261;27;20257;-70
2022/01/23 04:07:59;;;;;;;15.87;14.37;;;;;;;7.93;61.01;99449.13;8455736;28;20226;-70
2022/01/23 04:12:04;;;;;;;15.43;13.93;;;;;;;8.01;61.25;99449.94;8448726;28;20247;-70
2022/01/23 04:16:17;;;;;;;16.37;14.20;;;;;;;7.99;61.39;99443.06;8448030;28;20520;-70
2022/01/23 04:20:36;;;;;;;16.17;14.57;;;;;;;8.03;61.06;99474.00;8448613;28;20225;-70
2022/01/23 04:33:41;;;;;;;17.70;15.80;;;;;;;8.02;60.90;99467.09;8448253;28;20521;-70
2022/01/23 04:47:09;;;;;;;17.20;15.40;;;;;;;7.87;61.69;99444.03;8447583;28;20231;-70
2022/01/23 04:59:54;;;;;;;19.60;16.07;;;;;;;7.74;61.90;99461.34;8480442;28;20516;-70
2022/01/23 05:08:19;;;;;;;16.60;14.97;;;;;;;7.71;61.83;99471.72;8480334;28;20434;-70
2022/01/23 05:12:28;;;;;;;16.20;14.60;;;;;;;7.73;61.30;99476.81;8480288;28;20280;-70
2022/01/23 05:16:32;;;;;;;16.97;15.30;;;;;;;7.73;61.55;99480.28;8471828;28;20221;-71
2022/01/23 05:20:36;;;;;;;18.37;15.70;;;;;;;7.73;61.55;99484.56;8478475;28;20236;-70
2022/01/23 05:24:42;;;;;;;16.97;15.27;;;;;;;7.82;61.30;99482.78;8446310;28;20234;-70
2022/01/23 05:28:46;;;;;;;16.80;15.10;;;;;;;7.83;61.02;99483.63;8445684;28;20230;-70
2022/01/23 05:32:51;;;;;;;17.33;15.67;;;;;;;7.86;61.29;99486.16;8446029;28;20234;-70
2022/01/23 05:36:54;;;;;;;18.23;16.33;;;;;;;7.95;61.25;99488.66;8446074;28;20520;-70
2022/01/23 05:40:58;;;;;;;16.80;15.10;;;;;;;7.76;61.64;99494.88;8446383;28;20234;-70
2022/01/23 05:45:03;;;;;;;18.00;16.10;;;;;;;7.79;61.09;99500.00;8445944;28;20226;-70
2022/01/23 05:49:06;;;;;;;17.47;15.57;;;;;;;7.81;61.30;99495.69;8446225;28;20233;-70
2022/01/23 05:53:09;;;;;;;17.70;15.47;;;;;;;7.69;61.41;99491.50;8469444;28;20327;-70
2022/01/23 05:57:12;;;;;;;18.83;15.23;;;;;;;7.78;61.48;99496.56;8480027;28;20539;-70
2022/01/23 06:01:17;;;;;;;17.03;15.27;;;;;;;7.93;61.02;99492.13;8479995;28;20552;-70
2022/01/23 06:05:20;;;;;;;15.77;14.07;;;;;;;7.77;61.46;99488.84;8479657;28;20229;-70
2022/01/23 06:09:23;;;;;;;16.97;15.17;;;;;;;7.70;61.85;99495.78;8479913;28;20236;-70
2022/01/23 06:13:27;;;;;;;17.67;15.33;;;;;;;7.87;61.46;99505.94;8479846;28;20233;-70
2022/01/23 06:17:31;;;;;;;19.23;17.23;;;;;;;7.73;61.04;99506.06;8479954;28;20630;-70
2022/01/23 06:21:35;;;;;;;20.83;18.00;;;;;;;7.91;61.14;99515.38;8479177;28;20393;-70
2022/01/23 06:25:38;;;;;;;19.60;17.43;;;;;;;7.91;60.95;99519.69;8479379;28;20244;-70
2022/01/23 06:29:43;;;;;;;19.33;17.23;;;;;;;7.80;61.72;99527.50;8479743;28;20229;-70
2022/01/23 06:33:48;;;;;;;20.00;17.90;;;;;;;7.74;61.60;99530.97;8479584;28;20233;-70
2022/01/23 06:37:51;;;;;;;20.60;18.37;;;;;;;7.76;61.55;99525.81;8478849;28;20241;-70
2022/01/23 06:41:55;;;;;;;20.83;18.47;;;;;;;7.88;61.34;99519.69;8484834;28;20226;-70
2022/01/23 06:45:58;;;;;;;19.37;17.33;;;;;;;7.90;61.27;99523.09;8479717;27;20230;-70
2022/01/23 06:50:02;;;;;;;19.80;17.17;;;;;;;7.89;61.11;99536.91;8450595;28;20241;-70
2022/01/23 06:54:05;;;;;;;17.67;15.77;;;;;;;7.91;61.16;99546.31;8481738;28;20343;-70
2022/01/23 06:58:08;;;;;;;20.13;17.83;;;;;;;7.87;61.00;99549.81;8484937;28;20329;-70
2022/01/23 07:02:11;;;;;;;17.60;15.77;;;;;;;7.93;60.97;99551.47;8484585;27;20548;-70
2022/01/23 07:06:16;;;;;;;19.50;16.67;;;;;;;7.86;61.00;99549.81;8484319;28;20237;-70
2022/01/23 07:10:39;;;;;;;19.10;17.10;;;;;;;7.81;61.28;99560.16;8483833;28;20236;-71
2022/01/23 07:14:42;;;;;;;19.60;17.30;;;;;;;7.85;61.29;99563.59;8484228;27;20544;-70
2022/01/23 07:18:45;;;;;;;19.83;17.73;;;;;;;7.92;60.85;99560.06;8484366;28;20237;-70
2022/01/23 07:22:50;;;;;;;19.20;17.17;;;;;;;7.85;60.85;99559.28;8483821;28;20233;-70
2022/01/23 07:26:53;;;;;;;19.10;17.17;;;;;;;7.84;60.86;99570.44;8476354;28;20234;-70
2022/01/23 07:31:02;;;;;;;18.40;16.47;;;;;;;7.85;60.85;99568.75;8448964;28;20237;-70
2022/01/23 07:35:06;;;;;;;20.70;17.73;;;;;;;7.90;61.09;99583.31;8449403;28;20230;-71
2022/01/23 07:39:11;;;;;;;20.13;17.73;;;;;;;7.86;60.53;99588.50;8449436;28;20230;-71
2022/01/23 07:43:14;;;;;;;19.77;17.77;;;;;;;7.85;61.04;99600.53;8449659;28;20252;-71
2022/01/23 07:47:17;;;;;;;20.23;18.13;;;;;;;7.90;61.14;99603.06;8449329;28;20242;-71
2022/01/23 07:51:21;;;;;;;21.53;19.23;;;;;;;7.99;60.61;99606.44;8456418;28;20229;-71
2022/01/23 07:55:25;;;;;;;22.30;18.00;;;;;;;8.01;60.94;99603.84;8482970;28;20229;-71
2022/01/23 07:59:28;;;;;;;18.93;16.93;;;;;;;8.03;60.50;99605.56;8483137;28;20413;-71
2022/01/23 08:03:31;;;;;;;18.30;16.40;;;;;;;8.06;60.52;99606.41;8450152;28;20234;-71
2022/01/23 08:07:36;;;;;;;18.40;16.23;;;;;;;8.01;60.52;99609.00;8445431;28;20237;-71
2022/01/23 08:11:40;;;;;;;18.47;16.40;;;;;;;7.88;60.95;99607.41;8447561;28;20230;-71
2022/01/23 08:15:44;;;;;;;18.53;16.60;;;;;;;7.98;60.68;99609.91;8447512;28;20571;-71
2022/01/23 08:19:47;;;;;;;18.27;16.37;;;;;;;7.97;60.63;99620.22;8447572;28;20426;-71
2022/01/23 08:23:52;;;;;;;19.90;16.73;;;;;;;7.98;61.19;99622.81;8447498;28;20234;-71
2022/01/23 08:27:57;;;;;;;18.07;16.13;;;;;;;7.97;61.10;99621.06;8448023;28;20256;-70
2022/01/23 08:32:00;;;;;;;17.30;15.03;;;;;;;8.02;60.92;99627.06;8447012;28;20226;-70
2022/01/23 08:36:04;;;;;;;18.90;15.30;;;;;;;8.02;60.85;99626.22;8446949;28;20222;-70
2022/01/23 08:40:16;;;;;;;18.40;15.80;;;;;;;7.93;61.02;99636.59;8446995;28;20222;-70
2022/01/23 08:44:22;;;;;;;16.97;15.27;;;;;;;7.92;60.94;99630.59;8446629;28;20600;-70
2022/01/23 08:48:25;;;;;;;17.20;15.37;;;;;;;8.17;60.71;99633.84;8447097;28;20225;-70
2022/01/23 08:52:28;;;;;;;16.73;15.00;;;;;;;8.16;60.91;99631.28;8454375;28;20257;-70
2022/01/23 08:56:31;;;;;;;19.30;16.17;;;;;;;7.97;61.36;99635.72;8433749;28;20226;-70
2022/01/23 09:00:35;;;;;;;18.70;16.80;;;;;;;8.14;60.62;99626.13;8444145;28;20332;-67
2022/01/23 09:04:38;;;;;;;17.90;16.00;;;;;;;8.25;60.59;99632.94;8445610;28;20233;-68
2022/01/23 09:08:41;;;;;;;17.37;15.47;;;;;;;8.21;60.28;99625.19;8445249;28;20222;-67
2022/01/23 09:12:58;;;;;;;18.13;16.23;;;;;;;8.34;60.71;99630.25;8445399;28;20225;-66
2022/01/23 09:17:06;;;;;;;17.47;15.67;;;;;;;8.35;59.98;99632.81;8445445;28;20226;-67
2022/01/23 09:21:10;;;;;;;17.00;15.20;;;;;;;8.55;59.82;99637.84;8445562;28;20230;-67
2022/01/23 09:25:13;;;;;;;17.70;15.47;;;;;;;8.56;59.90;99634.38;8445586;28;20233;-67
2022/01/23 09:29:24;;;;;;;16.90;13.93;;;;;;;8.74;59.03;99638.53;8445807;28;20229;-67
2022/01/23 09:33:30;;;;;;;14.67;13.07;;;;;;;8.59;59.65;99639.53;8446147;28;20222;-67
2022/01/23 09:37:33;;;;;;;15.20;13.20;;;;;;;8.64;59.71;99642.06;8446039;28;20230;-68
2022/01/23 09:41:37;;;;;;;14.47;12.17;;;;;;;8.83;58.50;99631.53;8445686;28;20229;-69
2022/01/23 09:45:40;;;;;;;15.13;13.53;;;;;;;8.76;58.79;99635.94;8445933;28;20234;-67
2022/01/23 09:49:45;;;;;;;16.00;13.03;;;;;;;8.89;58.66;99640.09;8446091;28;20490;-67
2022/01/23 09:53:48;;;;;;;14.57;13.07;;;;;;;9.03;58.11;99646.84;8474510;28;20233;-67
2022/01/23 09:57:52;;;;;;;13.87;12.47;;;;;;;8.86;58.29;99649.59;8479790;28;20232;-67
2022/01/23 10:01:55;;;;;;;11.20;10.07;;;;;;;8.93;58.51;99659.84;8463743;28;20237;-67
2022/01/23 10:06:00;;;;;;;10.73;9.63;;;;;;;9.20;58.00;99655.25;8445946;28;20580;-67
2022/01/23 10:10:10;;;;;;;12.00;10.70;;;;;;;9.22;57.51;99656.09;8446048;28;20332;-67
2022/01/23 10:14:13;;;;;;;10.10;8.30;;;;;;;9.12;57.05;99649.28;8447456;28;20237;-67
2022/01/23 10:18:17;;;;;;;8.33;7.37;;;;;;;9.28;57.21;99637.91;8452344;28;20422;-67
2022/01/23 10:22:22;;;;;;;10.40;7.50;;;;;;;9.45;56.03;99640.28;8452110;28;20233;-67
2022/01/23 10:26:45;;;;;;;7.70;6.73;;;;;;;9.90;55.78;99634.47;8451809;28;20230;-67
2022/01/23 10:30:51;;;;;;;9.83;7.50;;;;;;;9.77;55.97;99631.22;8451991;28;20222;-67
2022/01/23 10:34:56;;;;;;;8.57;7.07;;;;;;;9.68;56.07;99627.03;8452153;28;20226;-67
2022/01/23 10:39:04;;;;;;;7.53;6.60;;;;;;;9.70;55.84;99630.44;8451069;28;20275;-67
2022/01/23 10:47:46;;;;;;;8.70;6.73;;;;;;;9.47;55.65;99628.19;8448912;28;20241;-67
2022/01/23 10:51:50;;;;;;;5.83;5.13;;;;;;;9.51;55.88;99622.09;8450968;28;20240;-67
2022/01/23 10:55:56;;;;;;;5.73;5.10;;;;;;;9.78;55.29;99617.41;8447614;28;20233;-69
2022/01/23 11:00:02;;;;;;;7.00;5.53;;;;;;;9.96;54.66;99611.97;8451259;28;20450;-67
2022/01/23 11:04:10;;;;;;;6.30;5.50;;;;;;;9.41;55.38;99615.34;8451174;28;20237;-66
2022/01/23 11:08:21;;;;;;;8.13;6.17;;;;;;;9.75;54.72;99612.28;8449663;28;20414;-67
2022/01/23 11:12:44;;;;;;;6.10;5.50;;;;;;;9.59;55.05;99614.22;8449889;28;20237;-67
2022/01/23 11:21:16;;;;;;;11.17;5.40;;;;;;;12.20;58.57;99613.56;8449167;28;20226;-67
2022/01/23 11:25:33;;;;;;;6.77;4.00;;;;;;;12.47;53.45;99613.75;8447481;28;20221;-68
2022/01/23 11:29:37;;;;;;;4.87;4.37;;;;;;;11.32;51.89;99625.91;8449475;28;20420;-67
2022/01/23 11:33:41;;;;;;;5.20;4.70;;;;;;;11.07;52.00;99629.91;8449014;28;20236;-67
2022/01/23 11:37:48;;;;;;;5.50;4.63;;;;;;;10.76;51.75;99627.91;8448805;28;20230;-67
2022/01/23 11:51:08;;;;;;;5.00;3.83;;;;;;;10.09;52.87;99615.22;8446383;28;20287;-67
2022/01/23 11:55:32;;;;;;;5.97;5.37;;;;;;;10.06;52.66;99617.00;8447884;28;20237;-67
2022/01/23 11:59:40;;;;;;;9.23;5.60;;;;;;;10.03;52.45;99615.28;8437269;28;20640;-66
2022/01/23 12:04:17;;;;;;;4.70;3.67;;;;;;;10.13;52.43;99613.44;8439192;28;20238;-68
2022/01/23 12:08:29;;;;;;;4.87;4.30;;;;;;;10.06;53.24;99611.81;8448406;28;20234;-68
2022/01/23 12:12:39;;;;;;;6.70;4.70;;;;;;;9.97;52.94;99610.22;8446321;28;20233;-69
2022/01/23 12:16:57;;;;;;;3.97;3.50;;;;;;;10.01;52.89;99605.84;8447536;28;20234;-69
2022/01/23 12:21:01;;;;;;;5.90;5.30;;;;;;;9.93;54.15;99605.97;8448437;28;20249;-68
2022/01/23 12:25:17;;;;;;;7.83;5.60;;;;;;;10.01;53.50;99603.25;8448300;28;20241;-68
2022/01/23 12:29:25;;;;;;;4.70;3.97;;;;;;;9.93;52.73;99588.69;8447948;28;20234;-68
2022/01/23 12:33:48;;;;;;;4.73;3.93;;;;;;;9.88;52.41;99592.25;8445075;28;20257;-68
2022/01/23 12:38:10;;;;;;;4.10;3.17;;;;;;;9.92;52.58;99583.56;8444559;28;20273;-69
2022/01/23 12:42:13;;;;;;;2.43;2.00;;;;;;;9.67;52.33;99585.66;8445154;28;20277;-68
2022/01/23 12:46:27;;;;;;;5.17;2.80;;;;;;;9.67;52.31;99583.06;8446655;28;20230;-68
2022/01/23 12:50:44;;;;;;;4.53;3.93;;;;;;;9.63;52.37;99586.59;8444249;28;20234;-68
2022/01/23 12:54:55;;;;;;;4.83;3.63;;;;;;;9.83;52.46;99581.97;8446754;28;20513;-68
2022/01/23 12:59:06;;;;;;;5.80;2.90;;;;;;;9.94;52.62;99584.41;8445269;28;20234;-68
2022/01/23 13:03:13;;;;;;;4.33;2.80;;;;;;;9.88;52.78;99585.34;8446748;28;20287;-69
2022/01/23 13:07:28;;;;;;;3.37;2.30;;;;;;;9.71;52.06;99593.38;8446355;28;20257;-68
2022/01/23 13:11:53;;;;;;;2.90;2.13;;;;;;;9.86;52.40;99591.41;8446491;28;20222;-68
2022/01/23 13:16:14;;;;;;;3.07;2.40;;;;;;;9.84;52.32;99585.41;8446646;28;20245;-70
2022/01/23 13:33:39;;;;;;;3.10;2.33;;;;;;;9.75;53.13;99573.47;8412950;28;20227;-69
2022/01/23 13:37:45;;;;;;;2.90;2.60;;;;;;;9.78;53.09;99576.00;8413465;28;20246;-69
2022/01/23 13:42:00;;;;;;;2.90;2.67;;;;;;;9.76;52.94;99582.94;8413229;28;20237;-68
2022/01/23 13:59:24;;;;;;;4.00;2.33;;;;;;;9.74;52.41;99571.75;8420617;28;20226;-81
2022/01/23 14:03:29;;;;;;;2.70;2.20;;;;;;;9.77;52.74;99564.81;8419921;28;20394;-82
2022/01/23 14:07:33;;;;;;;3.27;2.80;;;;;;;9.71;52.68;99562.31;8419120;28;20226;-88
2022/01/23 14:11:36;;;;;;;2.70;2.50;;;;;;;9.69;52.70;99568.38;8420043;28;20443;-80
2022/01/23 14:15:44;;;;;;;3.03;2.50;;;;;;;9.68;52.84;99572.72;8419412;28;20241;-79
2022/01/23 14:20:00;;;;;;;3.07;2.40;;;;;;;9.67;52.98;99572.72;8419089;28;20237;-79
2022/01/23 14:24:04;;;;;;;4.57;2.50;;;;;;;9.49;53.01;99569.53;8419119;28;20226;-81
2022/01/23 14:28:10;;;;;;;3.40;3.00;;;;;;;9.59;52.64;99572.84;8419150;28;20568;-80
2022/01/23 14:32:19;;;;;;;4.77;3.20;;;;;;;9.46;53.02;99569.59;8418917;28;20230;-79
2022/01/23 14:36:25;;;;;;;5.17;4.33;;;;;;;9.40;53.17;99582.59;8418851;28;20425;-81
2022/01/23 14:40:29;;;;;;;4.77;4.20;;;;;;;9.42;53.60;99580.00;8418841;28;20309;-81
2022/01/23 14:44:34;;;;;;;5.40;4.90;;;;;;;9.40;53.87;99572.25;8418308;28;20231;-82
2022/01/23 14:48:40;;;;;;;7.27;6.17;;;;;;;9.46;53.07;99571.31;8418418;28;20235;-81
2022/01/23 14:52:45;;;;;;;6.67;4.50;;;;;;;9.32;53.23;99577.53;8418600;28;20226;-82
2022/01/23 14:56:48;;;;;;;5.43;4.40;;;;;;;9.33;53.29;99576.66;8418434;28;20277;-82
2022/01/23 15:00:54;;;;;;;4.43;3.67;;;;;;;9.46;53.82;99577.34;8418106;28;20239;-81
2022/01/23 15:05:02;;;;;;;5.60;4.20;;;;;;;9.46;53.51;99568.72;8422644;28;20533;-81
2022/01/23 15:09:10;;;;;;;3.77;2.20;;;;;;;9.47;53.00;99563.53;8431799;28;20420;-81
2022/01/23 15:13:13;;;;;;;2.73;2.30;;;;;;;9.41;52.47;99566.22;8434101;28;20226;-81
2022/01/23 15:17:18;;;;;;;2.80;1.80;;;;;;;9.41;51.84;99566.22;8420334;28;20391;-82
2022/01/23 15:21:21;;;;;;;4.23;1.90;;;;;;;9.41;52.13;99565.38;8450629;28;20233;-83
2022/01/23 15:25:25;;;;;;;3.47;1.93;;;;;;;9.41;52.63;99566.22;8451175;28;20502;-83
2022/01/23 15:29:29;;;;;;;2.93;2.00;;;;;;;9.42;52.49;99559.31;8450637;28;20226;-82
2022/01/23 15:33:32;;;;;;;1.60;1.50;;;;;;;9.33;53.01;99568.91;8450400;28;20229;-83
2022/01/23 15:37:37;;;;;;;2.27;1.40;;;;;;;9.39;53.40;99563.66;8450676;28;20524;-83
2022/01/23 15:41:41;;;;;;;2.67;2.20;;;;;;;9.35;52.83;99569.75;8449980;28;20296;-83
2022/01/23 15:45:45;;;;;;;3.97;2.90;;;;;;;9.41;53.37;99562.78;8449641;28;20242;-82
2022/01/23 15:49:48;;;;;;;2.80;2.43;;;;;;;9.26;53.07;99558.66;8450989;28;20238;-81
2022/01/23 15:53:52;;;;;;;3.43;2.73;;;;;;;9.24;53.56;99563.84;8421105;28;20312;-83
2022/01/23 15:57:57;;;;;;;3.70;3.30;;;;;;;9.28;53.43;99569.84;8416479;28;20234;-81
2022/01/23 16:02:00;;;;;;;3.20;2.87;;;;;;;9.24;53.42;99565.59;8415990;28;20526;-86
2022/01/23 16:06:04;;;;;;;5.73;2.40;;;;;;;9.31;53.55;99570.66;8415690;28;20340;-83
2022/01/23 16:10:08;;;;;;;3.23;2.17;;;;;;;9.27;52.55;99568.13;8415839;28;20226;-84
2022/01/23 16:14:12;;;;;;;2.10;1.93;;;;;;;9.14;52.31;99573.47;8441698;28;20418;-84
2022/01/23 16:18:17;;;;;;;2.87;2.00;;;;;;;9.17;52.50;99591.50;8431871;28;20226;-84
2022/01/23 16:22:20;;;;;;;2.07;1.87;;;;;;;8.91;52.27;99591.84;8429187;28;20230;-84
2022/01/23 16:26:24;;;;;;;2.10;1.60;;;;;;;9.11;51.77;99599.34;8431646;28;20274;-84
2022/01/23 16:30:43;;;;;;;2.23;1.83;;;;;;;9.06;51.21;99595.09;8431180;28;20229;-84
2022/01/23 16:34:47;;;;;;;1.40;1.30;;;;;;;9.05;51.48;99596.00;8429226;28;20225;-83
2022/01/23 16:38:50;;;;;;;1.77;1.20;;;;;;;9.02;51.41;99590.84;8414929;28;20238;-82
2022/01/23 16:42:53;;;;;;;3.10;1.80;;;;;;;9.05;51.50;99599.41;8415031;28;20522;-82
2022/01/23 16:46:58;;;;;;;3.47;1.90;;;;;;;9.04;51.18;99595.13;8414396;28;20231;-83
2022/01/23 16:51:17;;;;;;;14.73;11.70;;;;;;;8.91;51.28;99599.59;8414852;28;20522;-82
2022/01/23 16:55:21;;;;;;;7.07;5.50;;;;;;;8.88;50.80;99598.78;8415370;28;20227;-83
2022/01/23 16:59:26;;;;;;;4.37;3.60;;;;;;;8.86;50.60;99597.94;8414806;28;20235;-83
2022/01/23 17:03:30;;;;;;;3.53;2.50;;;;;;;8.99;51.09;99600.34;8414047;28;20222;-82
2022/01/23 17:07:33;;;;;;;1.80;1.70;;;;;;;8.94;50.85;99599.53;8413728;28;20234;-83
2022/01/23 17:11:37;;;;;;;2.53;2.30;;;;;;;8.94;50.67;99599.53;8413360;28;20241;-84
2022/01/23 17:15:57;;;;;;;3.13;2.63;;;;;;;8.98;50.74;99610.69;8412785;28;20497;-83
2022/01/23 17:20:02;;;;;;;2.10;1.90;;;;;;;8.99;50.69;99609.84;8413655;28;20231;-83
2022/01/23 17:24:06;;;;;;;10.70;9.70;;;;;;;8.88;50.87;99617.69;8411880;28;20251;-83
2022/01/23 17:28:09;;;;;;;7.30;6.60;;;;;;;8.90;50.62;99610.78;8413757;28;20333;-84
2022/01/23 17:32:14;;;;;;;6.63;5.93;;;;;;;8.90;50.73;99608.19;8413871;28;20579;-82
2022/01/23 17:36:39;;;;;;;17.97;10.07;;;;;;;9.00;50.98;99603.78;8413353;28;20237;-80
2022/01/23 17:40:42;;;;;;;15.77;14.17;;;;;;;8.98;50.92;99613.28;8413829;28;20234;-81
2022/01/23 17:44:47;;;;;;;12.40;11.30;;;;;;;8.97;51.38;99611.59;8413411;28;20287;-81
2022/01/23 17:49:02;;;;;;;13.57;12.37;;;;;;;8.94;51.50;99620.22;8413581;28;20238;-81
2022/01/23 17:53:06;;;;;;;15.50;14.03;;;;;;;8.92;51.27;99621.97;8413382;28;20233;-81
2022/01/23 17:57:09;;;;;;;6.80;6.20;;;;;;;8.93;51.63;99628.84;8413332;28;20572;-82
2022/01/23 18:01:12;;;;;;;2.77;2.47;;;;;;;8.84;51.33;99631.53;8413548;28;20253;-83
2022/01/23 18:05:15;;;;;;;10.63;9.60;;;;;;;8.84;50.87;99615.19;8413518;28;20234;-84
2022/01/23 18:09:23;;;;;;;14.33;13.07;;;;;;;8.91;51.29;99633.19;8413133;28;20234;-85
2022/01/23 18:13:26;;;;;;;30.63;26.60;;;;;;;8.93;51.47;99639.19;8413453;28;20501;-84
2022/01/23 18:17:29;;;;;;;18.20;14.20;;;;;;;8.85;51.42;99647.88;8442497;28;20525;-84
2022/01/23 18:21:33;;;;;;;16.73;12.57;;;;;;;8.87;51.56;99647.00;8446525;28;20249;-82
2022/01/23 18:25:44;;;;;;;18.80;15.07;;;;;;;8.86;51.39;99644.44;8446655;28;20234;-84
2022/01/23 18:29:47;;;;;;;35.83;30.07;;;;;;;8.77;50.90;99643.63;8446386;28;20335;-84
2022/01/23 18:33:50;;;;;;;11.13;9.80;;;;;;;8.88;51.71;99645.28;8446683;28;20241;-83
2022/01/23 18:37:53;;;;;;;7.03;4.60;;;;;;;8.83;51.97;99650.47;8452296;28;20623;-84
2022/01/23 18:41:58;;;;;;;33.70;25.73;;;;;;;8.74;51.35;99650.59;8452727;28;20234;-83
2022/01/23 18:46:01;;;;;;;36.80;28.80;;;;;;;8.80;51.37;99646.22;8452611;28;20237;-84
2022/01/23 18:50:04;;;;;;;36.80;10.00;;;;;;;10.62;77.94;99643.69;8436738;28;20419;-83
2022/01/23 18:54:14;;;;;;;12.83;6.97;;;;;;;11.53;58.82;99639.31;8418610;28;20240;-82
2022/01/23 18:58:28;;;;;;;7.37;4.30;;;;;;;12.01;49.63;99638.28;8418657;28;20235;-83
2022/01/23 19:02:38;;;;;;;3.13;2.70;;;;;;;10.91;46.95;99639.72;8417706;28;20412;-84
2022/01/23 19:06:46;;;;;;;1.80;1.67;;;;;;;10.17;48.52;99628.03;8418234;28;20237;-84
2022/01/23 19:10:50;;;;;;;2.00;1.80;;;;;;;9.81;48.85;99638.06;8417681;28;20237;-84
2022/01/23 19:14:54;;;;;;;2.60;2.40;;;;;;;9.71;49.96;99636.47;8417946;28;20238;-83
2022/01/23 19:18:58;;;;;;;6.57;5.90;;;;;;;9.60;50.31;99626.28;8417784;28;20226;-84
2022/01/23 19:23:02;;;;;;;8.20;7.37;;;;;;;9.48;50.43;99635.09;8417399;28;20234;-83
2022/01/23 19:27:05;;;;;;;4.70;4.20;;;;;;;9.38;50.60;99638.66;8417564;28;20253;-84
2022/01/23 19:31:11;;;;;;;3.83;3.50;;;;;;;9.65;50.25;99644.31;8416883;28;20684;-84
2022/01/23 19:35:16;;;;;;;2.50;2.30;;;;;;;9.29;51.04;99649.09;8417711;28;20230;-83
2022/01/23 19:39:24;;;;;;;3.07;2.83;;;;;;;9.12;50.98;99652.75;8417444;28;20243;-82
2022/01/23 19:43:39;;;;;;;2.90;2.60;;;;;;;9.11;51.67;99652.78;8424368;28;20238;-83
2022/01/23 19:47:50;;;;;;;3.30;2.90;;;;;;;8.94;51.79;99655.53;8431650;28;20230;-83
2022/01/23 19:51:53;;;;;;;2.10;1.90;;;;;;;8.85;52.06;99647.88;8432687;28;20222;-83
2022/01/23 19:55:58;;;;;;;3.70;3.40;;;;;;;8.92;52.35;99646.94;8432859;28;20225;-83
2022/01/23 20:00:01;;;;;;;4.60;4.20;;;;;;;8.73;52.38;99648.88;8430258;28;20506;-83
2022/01/23 20:04:06;;;;;;;3.67;3.27;;;;;;;8.94;52.33;99652.94;8432540;28;20414;-82
2022/01/23 20:08:10;;;;;;;4.03;3.30;;;;;;;8.87;52.45;99649.59;8431977;28;20225;-83
2022/01/23 20:16:33;;;;;;;8.90;8.10;;;;;;;8.87;52.48;99643.56;8427935;28;20223;-83
2022/01/23 20:20:40;;;;;;;11.23;10.13;;;;;;;8.83;52.75;99657.38;8432259;28;20258;-83
2022/01/23 20:25:04;;;;;;;19.27;17.37;;;;;;;8.74;53.06;99659.19;8429748;28;20225;-82
2022/01/23 20:29:08;;;;;;;13.60;12.30;;;;;;;8.81;52.66;99659.97;8430492;28;20225;-83
2022/01/23 20:33:11;;;;;;;14.38;13.07;;;;;;;8.98;52.48;99667.53;8430805;28;20573;-82
2022/01/23 20:37:18;;;;;;;17.43;15.73;;;;;;;8.87;52.81;99665.09;8430331;28;20234;-83
2022/01/23 20:41:24;;;;;;;20.00;18.00;;;;;;;8.82;52.51;99666.00;8425922;28;20530;-82
2022/01/23 20:45:29;;;;;;;20.93;18.73;;;;;;;8.77;52.52;99659.13;8432927;28;20241;-83
2022/01/23 20:49:32;;;;;;;17.13;15.37;;;;;;;8.80;52.92;99666.03;8430556;28;20214;-83
2022/01/23 20:53:51;;;;;;;13.03;11.83;;;;;;;8.76;52.44;99669.50;8428609;28;20230;-83
2022/01/23 20:57:57;;;;;;;12.97;11.73;;;;;;;8.75;52.79;99660.88;8429671;28;20233;-83
2022/01/23 21:02:01;;;;;;;6.40;5.80;;;;;;;8.63;53.02;99657.59;8431005;28;20225;-83
2022/01/23 21:06:04;;;;;;;4.63;3.20;;;;;;;8.53;53.27;99649.91;8428499;28;20242;-83
2022/01/23 21:10:10;;;;;;;6.27;5.67;;;;;;;8.72;52.41;99653.19;8430321;28;20229;-83
2022/01/23 21:14:17;;;;;;;4.60;4.20;;;;;;;8.81;52.83;99652.22;8430110;28;20232;-83
2022/01/23 21:18:51;;;;;;;4.90;4.40;;;;;;;8.72;52.67;99648.03;8432950;28;20227;-82
2022/01/23 21:23:04;;;;;;;7.27;6.57;;;;;;;8.71;52.62;99653.19;8429060;28;20214;-83
2022/01/23 21:40:11;;;;;;;5.20;4.70;;;;;;;8.66;53.15;99644.63;8428490;28;20230;-82
2022/01/23 21:44:16;;;;;;;8.10;6.77;;;;;;;8.66;53.29;99650.63;8427166;28;20540;-83
2022/01/23 21:48:19;;;;;;;8.07;6.53;;;;;;;8.66;53.63;99649.78;8429402;28;20253;-83
2022/01/23 21:52:22;;;;;;;7.33;6.30;;;;;;;8.57;54.20;99656.75;8430966;28;20219;-83
2022/01/23 21:56:26;;;;;;;6.97;6.17;;;;;;;8.44;54.24;99660.31;8427817;28;20225;-83
2022/01/23 22:00:31;;;;;;;9.30;6.27;;;;;;;8.51;54.85;99655.94;8432515;28;20226;-82
2022/01/23 22:04:34;;;;;;;10.20;7.20;;;;;;;8.51;54.22;99651.66;8426618;28;20222;-83
2022/01/23 22:08:37;;;;;;;12.63;8.40;;;;;;;8.64;54.70;99654.97;8433049;28;20230;-84